createdAt,value
2018-04-25T00:00:45.089Z,94.40
2018-04-25T00:04:47.908Z,94.30
2018-04-25T00:08:50.946Z,94.40
2018-04-25T00:12:54.538Z,94.50
2018-04-25T00:16:57.401Z,94.50
2018-04-25T00:21:00.335Z,94.50
2018-04-25T00:25:03.122Z,94.60
2018-04-25T00:29:06.678Z,94.40
2018-04-25T00:33:10.290Z,94.40
2018-04-25T00:37:13.778Z,94.50
2018-04-25T00:41:16.682Z,94.50
2018-04-25T00:45:19.513Z,94.60
2018-04-25T00:49:23.175Z,94.50
2018-04-25T00:53:26.067Z,94.50
2018-04-25T00:57:28.862Z,94.70
2018-04-25T01:01:32.942Z,94.60
2018-04-25T01:05:35.790Z,94.40
2018-04-25T01:09:38.622Z,95.00
2018-04-25T01:13:41.510Z,94.90
2018-04-25T01:17:44.360Z,94.70
2018-04-25T01:21:48.895Z,95.10
2018-04-25T01:25:58.816Z,95.20
2018-04-25T01:30:01.736Z,95.20
2018-04-25T01:38:46.924Z,95.40
2018-04-25T01:42:57.307Z,95.20
2018-04-25T01:47:05.591Z,95.20
2018-04-25T01:51:20.209Z,95.20
2018-04-25T01:55:34.748Z,95.10
2018-04-25T01:59:49.518Z,95.40
2018-04-25T02:03:56.420Z,95.30
2018-04-25T02:07:59.149Z,95.30
2018-04-25T02:12:01.841Z,95.40
2018-04-25T02:16:04.661Z,95.50
2018-04-25T02:20:07.407Z,95.30
2018-04-25T02:24:10.154Z,95.30
2018-04-25T02:28:12.926Z,95.20
2018-04-25T02:32:15.792Z,95.40
2018-04-25T02:36:18.754Z,95.90
2018-04-25T02:40:21.921Z,95.90
2018-04-25T02:44:24.754Z,95.60
2018-04-25T02:48:27.474Z,95.60
2018-04-25T02:52:30.206Z,95.60
2018-04-25T02:56:33.358Z,95.60
2018-04-25T03:00:36.170Z,95.60
2018-04-25T03:04:39.710Z,95.50
2018-04-25T03:08:42.503Z,95.50
2018-04-25T03:12:45.197Z,95.50
2018-04-25T03:16:48.333Z,95.50
2018-04-25T03:20:51.061Z,95.50
2018-04-25T03:24:53.832Z,95.50
2018-04-25T03:28:56.610Z,95.50
2018-04-25T03:33:00.078Z,95.40
2018-04-25T03:37:02.820Z,95.40
2018-04-25T03:41:05.590Z,95.50
2018-04-25T03:45:08.484Z,95.60
2018-04-25T03:49:11.971Z,95.40
2018-04-25T03:53:14.690Z,95.40
2018-04-25T03:57:18.263Z,95.50
2018-04-25T04:01:21.107Z,95.40
2018-04-25T04:05:24.627Z,95.60
2018-04-25T04:09:28.237Z,95.40
2018-04-25T04:13:31.700Z,95.50
2018-04-25T04:17:34.547Z,95.40
2018-04-25T04:21:38.052Z,96.00
2018-04-25T04:25:40.763Z,95.90
2018-04-25T04:29:44.302Z,96.10
2018-04-25T04:33:47.095Z,96.10
2018-04-25T04:37:49.916Z,96.10
2018-04-25T04:41:52.667Z,96.10
2018-04-25T04:45:56.246Z,96.40
2018-04-25T04:50:00.097Z,96.40
2018-04-25T04:54:02.939Z,96.40
2018-04-25T04:58:05.769Z,96.50
2018-04-25T05:02:08.608Z,96.50
2018-04-25T05:06:11.351Z,96.50
2018-04-25T05:10:15.982Z,96.60
2018-04-25T05:14:19.239Z,96.60
2018-04-25T05:18:22.276Z,96.70
2018-04-25T05:22:25.041Z,96.70
2018-04-25T05:26:27.759Z,96.70
2018-04-25T05:30:30.621Z,96.70
2018-04-25T05:34:33.435Z,96.30
2018-04-25T05:38:36.339Z,96.40
2018-04-25T05:42:39.841Z,96.60
2018-04-25T05:46:42.575Z,96.60
2018-04-25T05:50:47.458Z,96.60
2018-04-25T05:54:50.937Z,96.80
2018-04-25T05:58:53.667Z,96.70
2018-04-25T06:02:56.409Z,96.70
2018-04-25T06:06:59.203Z,96.70
2018-04-25T06:11:02.804Z,96.40
2018-04-25T06:15:07.767Z,96.30
2018-04-25T06:19:11.276Z,96.40
2018-04-25T06:23:14.810Z,96.50
2018-04-25T06:27:17.766Z,96.50
2018-04-25T06:31:20.464Z,96.60
2018-04-25T06:35:23.363Z,96.40
2018-04-25T06:39:26.158Z,96.00
2018-04-25T06:43:28.911Z,96.00
2018-04-25T06:47:31.643Z,95.70
2018-04-25T06:51:34.373Z,95.10
2018-04-25T06:55:37.150Z,94.00
2018-04-25T06:59:39.847Z,93.00
2018-04-25T07:03:42.685Z,90.80
2018-04-25T07:07:46.202Z,90.00
2018-04-25T07:11:49.659Z,87.80
2018-04-25T07:15:53.153Z,83.60
2018-04-25T07:19:55.961Z,83.80
2018-04-25T07:23:58.670Z,85.20
2018-04-25T07:28:02.454Z,82.80
2018-04-25T07:32:05.257Z,83.70
2018-04-25T07:36:08.045Z,80.00
2018-04-25T07:40:10.873Z,74.00
2018-04-25T07:44:13.652Z,74.20
2018-04-25T07:48:16.450Z,73.10
2018-04-25T07:52:19.182Z,70.50
2018-04-25T07:56:21.922Z,68.90
2018-04-25T08:00:25.383Z,65.00
2018-04-25T08:04:29.065Z,65.90
2018-04-25T08:08:32.833Z,65.90
2018-04-25T08:12:47.671Z,63.90
2018-04-25T08:17:03.344Z,63.70
2018-04-25T08:21:28.740Z,61.40
2018-04-25T08:25:31.734Z,61.30
2018-04-25T08:29:34.501Z,58.80
2018-04-25T08:33:37.256Z,57.40
2018-04-25T08:37:40.065Z,56.80
2018-04-25T08:41:42.849Z,55.30
2018-04-25T08:45:45.603Z,55.80
2018-04-25T08:49:53.063Z,51.90
2018-04-25T08:53:55.797Z,51.80
2018-04-25T08:57:58.562Z,50.40
2018-04-25T09:02:01.460Z,51.10
2018-04-25T09:06:04.226Z,53.10
2018-04-25T09:10:08.203Z,51.40
2018-04-25T09:14:10.962Z,52.80
2018-04-25T09:18:13.684Z,52.50
2018-04-25T09:22:16.557Z,50.20
2018-04-25T09:26:19.297Z,48.20
2018-04-25T09:30:22.120Z,48.50
2018-04-25T09:34:25.628Z,48.00
2018-04-25T09:38:30.258Z,48.00
2018-04-25T09:42:33.005Z,48.00
2018-04-25T09:46:35.847Z,45.10
2018-04-25T09:50:38.702Z,46.90
2018-04-25T09:54:41.543Z,44.60
2018-04-25T09:58:44.258Z,44.30
2018-04-25T10:02:53.704Z,42.00
2018-04-25T10:06:57.664Z,42.00
2018-04-25T10:11:00.362Z,44.30
2018-04-25T10:15:03.173Z,42.60
2018-04-25T10:19:05.912Z,44.60
2018-04-25T10:23:09.384Z,40.40
2018-04-25T10:27:12.244Z,40.30
2018-04-25T10:31:15.082Z,39.30
2018-04-25T10:35:17.854Z,38.70
2018-04-25T10:39:20.594Z,38.70
2018-04-25T10:43:23.389Z,38.50
2018-04-25T10:47:26.108Z,35.00
2018-04-25T10:51:28.884Z,37.50
2018-04-25T10:55:31.655Z,39.10
2018-04-25T10:59:34.551Z,37.70
2018-04-25T11:03:37.325Z,35.30
2018-04-25T11:07:40.985Z,35.40
2018-04-25T11:11:43.694Z,35.20
2018-04-25T11:15:47.266Z,33.70
2018-04-25T11:19:50.497Z,34.10
2018-04-25T11:23:54.322Z,34.10
2018-04-25T11:27:57.033Z,35.90
2018-04-25T11:32:00.041Z,33.60
2018-04-25T11:36:03.150Z,32.70
2018-04-25T11:40:07.892Z,32.40
2018-04-25T11:44:10.624Z,33.90
2018-04-25T11:48:14.267Z,31.70
2018-04-25T11:52:16.990Z,31.70
2018-04-25T11:56:19.786Z,30.60
2018-04-25T12:00:22.526Z,29.80
2018-04-25T12:04:25.331Z,29.20
2018-04-25T12:08:28.830Z,30.70
2018-04-25T12:12:31.602Z,30.70
2018-04-25T12:16:34.427Z,31.30
2018-04-25T12:20:37.166Z,30.00
2018-04-25T12:24:39.988Z,29.40
2018-04-25T12:28:43.867Z,29.70
2018-04-25T12:32:46.686Z,29.50
2018-04-25T12:36:49.917Z,30.10
2018-04-25T12:40:53.453Z,26.80
2018-04-25T12:44:57.188Z,29.10
2018-04-25T12:49:00.209Z,28.60
2018-04-25T12:53:03.824Z,28.00
2018-04-25T12:57:07.492Z,26.10
2018-04-25T13:01:10.227Z,26.10
2018-04-25T13:05:13.107Z,25.90
2018-04-25T13:09:15.868Z,28.40
2018-04-25T13:13:19.687Z,28.60
2018-04-25T13:17:22.471Z,27.20
2018-04-25T13:21:26.340Z,27.00
2018-04-25T13:25:29.241Z,26.10
2018-04-25T13:29:33.190Z,26.90
2018-04-25T13:33:36.757Z,29.90
2018-04-25T13:37:39.569Z,29.90
2018-04-25T13:41:44.463Z,27.40
2018-04-25T13:45:48.003Z,25.90
2018-04-25T13:49:50.911Z,25.90
2018-04-25T13:53:53.637Z,26.20
2018-04-25T13:57:56.441Z,26.00
2018-04-25T14:01:59.214Z,25.20
2018-04-25T14:06:02.132Z,26.10
2018-04-25T14:10:04.897Z,24.70
2018-04-25T14:14:11.606Z,26.20
2018-04-25T14:18:14.414Z,25.60
2018-04-25T14:22:17.143Z,24.90
2018-04-25T14:26:20.081Z,25.40
2018-04-25T14:30:22.966Z,26.20
2018-04-25T14:34:26.432Z,25.30
2018-04-25T14:38:29.325Z,25.40
2018-04-25T14:42:32.895Z,28.70
2018-04-25T14:46:35.666Z,28.70
2018-04-25T14:50:38.409Z,33.50
2018-04-25T14:54:41.240Z,29.30
2018-04-25T14:58:44.128Z,29.20
2018-04-25T15:02:46.947Z,28.10
2018-04-25T15:06:49.770Z,26.90
2018-04-25T15:10:53.391Z,27.30
2018-04-25T15:14:56.929Z,27.60
2018-04-25T15:18:59.680Z,27.60
2018-04-25T15:23:02.413Z,27.90
2018-04-25T15:27:05.282Z,29.90
2018-04-25T15:31:08.094Z,30.80
2018-04-25T15:35:11.582Z,33.00
2018-04-25T15:39:14.327Z,32.70
2018-04-25T15:43:17.205Z,31.80
2018-04-25T15:47:20.765Z,33.50
2018-04-25T15:51:23.630Z,33.00
2018-04-25T15:55:27.163Z,33.80
2018-04-25T15:59:29.889Z,34.10
2018-04-25T16:03:33.543Z,40.30
2018-04-25T16:07:36.319Z,40.30
2018-04-25T16:11:39.227Z,39.70
2018-04-25T16:15:41.955Z,38.30
2018-04-25T16:19:45.669Z,37.60
2018-04-25T16:23:49.175Z,37.10
2018-04-25T16:27:52.183Z,37.00
2018-04-25T16:31:55.674Z,41.20
2018-04-25T16:35:58.457Z,41.10
2018-04-25T16:40:01.378Z,47.10
2018-04-25T16:44:04.153Z,40.90
2018-04-25T16:48:07.119Z,42.40
2018-04-25T16:52:09.910Z,43.30
2018-04-25T16:56:13.523Z,45.80
2018-04-25T17:00:17.049Z,46.30
2018-04-25T17:04:19.780Z,46.30
2018-04-25T17:08:22.564Z,52.70
2018-04-25T17:12:25.305Z,55.10
2018-04-25T17:16:28.035Z,56.00
2018-04-25T17:20:30.949Z,57.60
2018-04-25T17:24:33.771Z,57.50
2018-04-25T17:28:36.612Z,55.80
2018-04-25T17:32:39.296Z,58.40
2018-04-25T17:36:43.048Z,57.70
2018-04-25T17:40:45.796Z,60.40
2018-04-25T17:44:48.589Z,61.00
2018-04-25T17:48:51.284Z,60.80
2018-04-25T17:52:54.027Z,63.00
2018-04-25T17:56:57.527Z,65.30
2018-04-25T18:01:01.006Z,67.70
2018-04-25T18:05:03.826Z,67.70
2018-04-25T18:09:06.547Z,66.10
2018-04-25T18:13:09.327Z,67.10
2018-04-25T18:17:12.358Z,67.70
2018-04-25T18:21:15.311Z,69.70
2018-04-25T18:25:18.029Z,69.50
2018-04-25T18:29:22.064Z,70.20
2018-04-25T18:33:24.876Z,70.50
2018-04-25T18:37:28.440Z,73.50
2018-04-25T18:41:31.181Z,73.30
2018-04-25T18:45:35.052Z,72.80
2018-04-25T18:49:38.073Z,73.80
2018-04-25T18:53:40.965Z,74.60
2018-04-25T18:57:43.705Z,75.90
2018-04-25T19:01:46.490Z,75.60
2018-04-25T19:05:49.241Z,77.20
2018-04-25T19:09:52.065Z,77.70
2018-04-25T19:13:54.886Z,78.20
2018-04-25T19:17:57.833Z,78.30
2018-04-25T19:22:00.664Z,78.70
2018-04-25T19:26:03.500Z,79.40
2018-04-25T19:30:07.957Z,79.30
2018-04-25T19:34:10.757Z,79.20
2018-04-25T19:38:13.541Z,79.30
2018-04-25T19:42:16.576Z,80.60
2018-04-25T19:46:19.503Z,81.40
2018-04-25T19:50:23.707Z,81.90
2018-04-25T19:54:26.525Z,82.00
2018-04-25T19:58:29.389Z,82.20
2018-04-25T20:02:32.236Z,82.80
2018-04-25T20:06:37.402Z,83.20
2018-04-25T20:10:40.226Z,84.70
2018-04-25T20:14:43.998Z,85.10
2018-04-25T20:18:46.838Z,85.10
2018-04-25T20:22:50.526Z,85.60
2018-04-25T20:26:53.682Z,85.50
2018-04-25T20:30:56.618Z,85.20
2018-04-25T20:34:59.515Z,84.80
2018-04-25T20:39:02.296Z,85.40
2018-04-25T20:43:05.133Z,85.30
2018-04-25T20:47:07.920Z,86.10
2018-04-25T20:51:10.645Z,86.80
2018-04-25T20:55:13.420Z,86.90
2018-04-25T20:59:16.245Z,88.00
2018-04-25T21:03:19.984Z,87.30
2018-04-25T21:07:22.731Z,87.30
2018-04-25T21:11:25.468Z,86.80
2018-04-25T21:15:29.031Z,87.80
2018-04-25T21:19:31.745Z,87.70
2018-04-25T21:23:34.499Z,87.80
2018-04-25T21:27:37.262Z,87.30
2018-04-25T21:31:41.914Z,88.70
2018-04-25T21:35:45.414Z,88.60
2018-04-25T21:39:49.043Z,87.20
2018-04-25T21:43:52.568Z,88.30
2018-04-25T21:47:55.466Z,88.20
2018-04-25T21:51:58.218Z,89.40
2018-04-25T21:56:01.119Z,90.20
2018-04-25T22:00:03.968Z,90.20
2018-04-25T22:04:06.827Z,90.20
2018-04-25T22:08:09.579Z,89.70
2018-04-25T22:12:12.409Z,90.20
2018-04-25T22:16:15.141Z,90.60
2018-04-25T22:20:18.639Z,90.40
2018-04-25T22:24:21.468Z,90.40
2018-04-25T22:28:25.177Z,91.10
2018-04-25T22:32:28.654Z,91.00
2018-04-25T22:36:31.501Z,90.90
2018-04-25T22:40:34.290Z,91.30
2018-04-25T22:44:37.879Z,90.80
2018-04-25T22:48:40.617Z,90.80
2018-04-25T22:52:43.416Z,91.30
2018-04-25T22:56:46.261Z,91.40
2018-04-25T23:00:49.031Z,91.60
2018-04-25T23:04:51.829Z,91.70
2018-04-25T23:08:54.578Z,91.80
2018-04-25T23:12:57.390Z,91.50
2018-04-25T23:17:00.867Z,91.40
2018-04-25T23:21:03.721Z,91.40
2018-04-25T23:25:06.523Z,91.70
2018-04-25T23:29:09.439Z,91.70
2018-04-25T23:33:12.252Z,91.40
2018-04-25T23:37:14.990Z,91.20
2018-04-25T23:41:17.707Z,91.00
2018-04-25T23:45:20.812Z,90.70
2018-04-25T23:49:23.561Z,91.00
2018-04-25T23:53:26.295Z,90.70
2018-04-25T23:57:29.886Z,91.00
